createdAt,value
2023-05-21T00:01:07.515Z,4.40
2023-05-21T00:03:36.502Z,4.43
2023-05-21T00:06:03.813Z,3.93
2023-05-21T00:08:30.991Z,4.20
2023-05-21T00:10:57.596Z,3.90
2023-05-21T00:13:24.170Z,4.07
2023-05-21T00:15:51.104Z,4.43
2023-05-21T00:18:18.159Z,4.03
2023-05-21T00:20:45.676Z,4.70
2023-05-21T00:23:12.348Z,4.17
2023-05-21T00:25:39.071Z,3.80
2023-05-21T00:28:05.788Z,3.63
2023-05-21T00:30:32.339Z,4.40
2023-05-21T00:33:02.399Z,4.10
2023-05-21T00:35:29.394Z,4.00
2023-05-21T00:37:56.468Z,3.73
2023-05-21T00:40:23.643Z,3.63
2023-05-21T00:42:50.321Z,3.77
2023-05-21T00:45:16.921Z,4.00
2023-05-21T00:47:44.180Z,4.00
2023-05-21T00:50:12.214Z,4.27
2023-05-21T00:52:42.214Z,4.20
2023-05-21T00:55:10.017Z,3.60
2023-05-21T00:57:37.261Z,3.50
2023-05-21T01:00:07.247Z,4.40
2023-05-21T01:02:34.757Z,3.80
2023-05-21T01:05:04.137Z,3.90
2023-05-21T01:07:30.727Z,3.77
2023-05-21T01:09:57.709Z,4.10
2023-05-21T01:12:24.438Z,3.33
2023-05-21T01:14:52.156Z,3.47
2023-05-21T01:17:20.739Z,4.07
2023-05-21T01:19:47.877Z,3.70
2023-05-21T01:22:16.914Z,3.83
2023-05-21T01:24:48.001Z,3.63
2023-05-21T01:27:14.624Z,3.83
2023-05-21T01:29:41.644Z,5.03
2023-05-21T01:32:29.114Z,3.90
2023-05-21T01:35:11.152Z,4.57
2023-05-21T01:37:46.171Z,3.43
2023-05-21T01:40:35.791Z,3.77
2023-05-21T01:43:05.682Z,3.67
2023-05-21T01:45:36.755Z,3.60
2023-05-21T01:48:05.863Z,3.83
2023-05-21T01:50:33.838Z,3.47
2023-05-21T01:53:05.772Z,3.60
2023-05-21T01:55:32.708Z,4.07
2023-05-21T01:58:02.379Z,3.53
2023-05-21T02:00:29.514Z,3.50
2023-05-21T02:02:56.507Z,4.10
2023-05-21T02:05:23.774Z,3.47
2023-05-21T02:07:51.983Z,3.67
2023-05-21T02:10:19.346Z,3.30
2023-05-21T02:12:46.217Z,4.17
2023-05-21T02:15:14.227Z,3.87
2023-05-21T02:17:42.505Z,3.47
2023-05-21T02:20:12.478Z,3.50
2023-05-21T02:22:42.401Z,3.10
2023-05-21T02:25:10.183Z,3.43
2023-05-21T02:27:37.739Z,3.30
2023-05-21T02:30:06.832Z,3.90
2023-05-21T02:32:34.049Z,3.13
2023-05-21T02:35:03.526Z,2.70
2023-05-21T02:37:34.759Z,2.60
2023-05-21T02:40:06.261Z,2.93
2023-05-21T02:42:33.975Z,3.20
2023-05-21T02:45:00.646Z,2.97
2023-05-21T02:47:28.789Z,3.00
2023-05-21T02:49:55.801Z,3.20
2023-05-21T02:52:23.855Z,3.50
2023-05-21T02:54:52.051Z,3.70
2023-05-21T02:57:18.721Z,3.60
2023-05-21T02:59:46.012Z,3.07
2023-05-21T03:02:12.673Z,3.10
2023-05-21T03:04:46.754Z,3.87
2023-05-21T03:07:14.601Z,3.30
2023-05-21T03:09:42.181Z,3.47
2023-05-21T03:12:09.593Z,2.70
2023-05-21T03:14:36.566Z,3.53
2023-05-21T03:17:05.887Z,3.03
2023-05-21T03:19:36.727Z,3.83
2023-05-21T03:22:04.918Z,3.10
2023-05-21T03:24:35.175Z,3.43
2023-05-21T03:27:06.261Z,3.57
2023-05-21T03:29:33.798Z,3.70
2023-05-21T03:32:02.921Z,2.83
2023-05-21T03:34:31.058Z,3.20
2023-05-21T03:36:58.238Z,3.30
2023-05-21T03:39:26.053Z,2.57
2023-05-21T03:41:54.287Z,3.13
2023-05-21T03:44:32.287Z,3.20
2023-05-21T03:47:11.796Z,2.67
2023-05-21T03:49:38.789Z,2.90
2023-05-21T03:52:06.470Z,3.47
2023-05-21T03:54:33.704Z,3.43
2023-05-21T03:57:04.927Z,3.33
2023-05-21T03:59:32.567Z,3.17
2023-05-21T04:02:00.252Z,3.30
2023-05-21T04:04:29.290Z,3.10
2023-05-21T04:06:56.633Z,2.90
2023-05-21T04:09:23.203Z,3.10
2023-05-21T04:11:51.852Z,3.03
2023-05-21T04:14:18.857Z,2.47
2023-05-21T04:16:45.838Z,2.70
2023-05-21T04:19:12.527Z,3.07
2023-05-21T04:21:40.335Z,2.77
2023-05-21T04:24:07.676Z,2.53
2023-05-21T04:27:01.200Z,3.23
2023-05-21T04:29:31.408Z,2.90
2023-05-21T04:31:58.078Z,4.33
2023-05-21T04:34:24.807Z,2.80
2023-05-21T04:36:51.985Z,3.23
2023-05-21T04:39:19.009Z,3.30
2023-05-21T04:41:45.640Z,3.27
2023-05-21T04:44:14.729Z,2.80
2023-05-21T04:46:45.967Z,3.43
2023-05-21T04:49:12.694Z,3.50
2023-05-21T04:51:39.917Z,3.30
2023-05-21T04:54:06.662Z,2.83
2023-05-21T04:56:34.635Z,3.40
2023-05-21T04:59:04.671Z,3.07
2023-05-21T05:01:35.117Z,2.60
2023-05-21T05:04:01.979Z,2.80
2023-05-21T05:06:29.096Z,3.00
2023-05-21T05:08:55.747Z,3.07
2023-05-21T05:11:23.424Z,3.50
2023-05-21T05:13:52.348Z,2.80
2023-05-21T05:16:24.953Z,2.80
2023-05-21T05:18:52.670Z,2.63
2023-05-21T05:21:20.356Z,3.73
2023-05-21T05:23:47.829Z,3.03
2023-05-21T05:26:14.490Z,3.20
2023-05-21T05:28:41.717Z,3.57
2023-05-21T05:31:08.852Z,3.27
2023-05-21T05:33:35.599Z,2.77
2023-05-21T05:36:02.276Z,3.60
2023-05-21T05:38:30.051Z,3.30
2023-05-21T05:40:56.700Z,3.83
2023-05-21T05:43:25.549Z,3.40
2023-05-21T05:45:52.880Z,3.83
2023-05-21T05:48:19.934Z,3.70
2023-05-21T05:50:47.455Z,4.13
2023-05-21T05:53:14.682Z,4.00
2023-05-21T05:55:41.381Z,3.33
2023-05-21T05:58:08.037Z,3.57
2023-05-21T06:00:47.708Z,4.33
2023-05-21T06:03:14.562Z,3.63
2023-05-21T06:05:42.395Z,4.87
2023-05-21T06:08:09.009Z,4.70
2023-05-21T06:10:35.575Z,4.90
2023-05-21T06:13:03.551Z,4.57
2023-05-21T06:15:30.354Z,4.50
2023-05-21T06:17:57.076Z,5.20
2023-05-21T06:20:23.769Z,4.33
2023-05-21T06:22:50.720Z,5.10
2023-05-21T06:25:18.250Z,5.57
2023-05-21T06:27:45.007Z,5.47
2023-05-21T06:30:18.410Z,5.30
2023-05-21T06:32:45.176Z,5.40
2023-05-21T06:35:12.301Z,4.50
2023-05-21T06:37:38.942Z,5.10
2023-05-21T06:40:06.572Z,6.37
2023-05-21T06:42:33.575Z,6.10
2023-05-21T06:45:19.053Z,5.50
2023-05-21T06:47:46.156Z,5.80
2023-05-21T06:50:13.332Z,5.80
2023-05-21T06:52:40.192Z,6.07
2023-05-21T06:55:07.561Z,5.77
2023-05-21T06:57:54.374Z,7.00
2023-05-21T07:00:21.265Z,6.03
2023-05-21T07:02:48.544Z,6.33
2023-05-21T07:05:15.915Z,6.70
2023-05-21T07:07:42.566Z,7.03
2023-05-21T07:10:10.351Z,7.00
2023-05-21T07:12:38.209Z,7.60
2023-05-21T07:15:05.123Z,7.60
2023-05-21T07:17:31.963Z,6.40
2023-05-21T07:19:58.555Z,5.80
2023-05-21T07:22:28.108Z,6.57
2023-05-21T07:24:55.161Z,7.23
2023-05-21T07:27:25.675Z,6.80
2023-05-21T07:29:54.761Z,8.30
2023-05-21T07:32:21.723Z,7.30
2023-05-21T07:34:48.549Z,7.70
2023-05-21T07:37:15.639Z,8.33
2023-05-21T07:39:42.198Z,8.50
2023-05-21T07:42:09.831Z,8.23
2023-05-21T07:44:36.475Z,8.43
2023-05-21T07:47:03.183Z,9.20
2023-05-21T07:49:30.074Z,7.97
2023-05-21T07:51:57.609Z,8.90
2023-05-21T07:54:24.600Z,7.20
2023-05-21T07:56:51.247Z,8.10
2023-05-21T07:59:44.084Z,7.47
2023-05-21T08:02:11.503Z,7.30
2023-05-21T08:04:41.018Z,9.07
2023-05-21T08:07:09.646Z,9.27
2023-05-21T08:09:36.615Z,9.00
2023-05-21T08:12:03.370Z,8.20
2023-05-21T08:14:30.370Z,8.00
2023-05-21T08:16:57.179Z,8.43
2023-05-21T08:19:23.936Z,8.77
2023-05-21T08:21:52.849Z,8.90
2023-05-21T08:24:20.962Z,10.10
2023-05-21T08:26:49.806Z,10.70
2023-05-21T08:29:16.714Z,10.20
2023-05-21T08:31:43.372Z,10.10
2023-05-21T08:34:10.376Z,9.53
2023-05-21T08:36:48.300Z,9.77
2023-05-21T08:39:35.151Z,9.53
2023-05-21T08:42:32.781Z,10.33
2023-05-21T08:45:06.636Z,10.50
2023-05-21T08:47:36.311Z,9.80
2023-05-21T08:50:05.762Z,10.00
2023-05-21T08:52:32.461Z,9.73
2023-05-21T08:55:00.267Z,10.13
2023-05-21T08:57:28.101Z,10.13
2023-05-21T08:59:55.882Z,10.20
2023-05-21T09:02:26.548Z,9.90
2023-05-21T09:04:57.273Z,9.40
2023-05-21T09:07:29.035Z,9.63
2023-05-21T09:10:14.893Z,9.83
2023-05-21T09:12:42.297Z,10.27
2023-05-21T09:15:10.291Z,9.07
2023-05-21T09:17:38.165Z,8.97
2023-05-21T09:20:25.771Z,9.00
2023-05-21T09:22:56.925Z,9.57
2023-05-21T09:25:28.130Z,10.60
2023-05-21T09:27:56.951Z,8.60
2023-05-21T09:30:26.818Z,8.80
2023-05-21T09:32:57.541Z,9.50
2023-05-21T09:35:24.927Z,9.10
2023-05-21T09:37:53.247Z,8.87
2023-05-21T09:40:22.612Z,9.00
2023-05-21T09:42:55.001Z,9.63
2023-05-21T09:45:23.479Z,8.20
2023-05-21T09:47:53.735Z,8.90
2023-05-21T09:50:31.430Z,9.50
2023-05-21T09:52:58.457Z,10.07
2023-05-21T09:55:26.962Z,9.37
2023-05-21T09:57:53.595Z,9.33
2023-05-21T10:00:25.472Z,9.40
2023-05-21T10:03:01.196Z,10.10
2023-05-21T10:05:29.787Z,7.97
2023-05-21T10:08:04.495Z,9.13
2023-05-21T10:10:32.767Z,9.03
2023-05-21T10:13:09.293Z,8.90
2023-05-21T10:15:43.646Z,8.30
2023-05-21T10:18:12.347Z,8.70
2023-05-21T10:20:39.865Z,8.50
2023-05-21T10:23:07.707Z,8.47
2023-05-21T10:25:34.996Z,9.93
2023-05-21T10:28:02.952Z,8.50
2023-05-21T10:30:29.970Z,8.27
2023-05-21T10:32:58.459Z,7.60
2023-05-21T10:35:25.868Z,9.13
2023-05-21T10:37:54.089Z,8.30
2023-05-21T10:40:20.914Z,8.20
2023-05-21T10:43:21.036Z,8.67
2023-05-21T10:46:11.623Z,8.40
2023-05-21T10:48:44.732Z,9.33
2023-05-21T10:51:26.427Z,8.07
2023-05-21T10:54:27.345Z,7.77
2023-05-21T10:57:30.424Z,8.60
2023-05-21T10:59:58.321Z,8.30
2023-05-21T11:02:27.203Z,8.80
2023-05-21T11:05:01.186Z,8.93
2023-05-21T11:07:56.703Z,8.60
2023-05-21T11:10:39.313Z,8.47
2023-05-21T11:13:14.033Z,8.00
2023-05-21T11:16:05.122Z,8.63
2023-05-21T11:18:37.905Z,8.87
2023-05-21T11:21:06.310Z,9.87
2023-05-21T11:23:51.362Z,8.40
2023-05-21T11:26:26.378Z,9.40
2023-05-21T11:29:05.453Z,8.77
2023-05-21T11:31:38.202Z,9.00
2023-05-21T11:34:10.969Z,9.87
2023-05-21T11:36:38.864Z,8.43
2023-05-21T11:39:14.025Z,9.00
2023-05-21T11:42:04.183Z,10.50
2023-05-21T11:44:49.205Z,9.50
2023-05-21T11:47:18.211Z,10.27
2023-05-21T11:49:46.104Z,9.20
2023-05-21T11:52:14.179Z,9.60
2023-05-21T11:54:46.178Z,11.13
2023-05-21T11:57:17.430Z,10.03
2023-05-21T11:59:44.951Z,9.00
2023-05-21T12:02:18.957Z,8.60
2023-05-21T12:04:50.598Z,9.17
2023-05-21T12:07:20.612Z,8.90
2023-05-21T12:09:49.426Z,8.97
2023-05-21T12:12:18.159Z,10.53
2023-05-21T12:14:49.056Z,8.70
2023-05-21T12:17:17.758Z,9.13
2023-05-21T12:19:46.158Z,8.60
2023-05-21T12:22:13.052Z,9.03
2023-05-21T12:24:39.943Z,8.47
2023-05-21T12:27:09.734Z,8.80
2023-05-21T12:29:38.747Z,8.73
2023-05-21T12:32:08.681Z,9.50
2023-05-21T12:34:38.913Z,9.10
2023-05-21T12:37:07.734Z,8.87
2023-05-21T12:39:48.237Z,9.97
2023-05-21T12:42:15.425Z,9.20
2023-05-21T12:44:47.449Z,9.60
2023-05-21T12:47:14.266Z,8.70
2023-05-21T12:49:46.084Z,8.47
2023-05-21T12:52:13.498Z,8.17
2023-05-21T12:54:43.173Z,8.03
2023-05-21T12:57:20.060Z,9.23
2023-05-21T12:59:50.041Z,8.70
2023-05-21T13:02:18.679Z,8.70
2023-05-21T13:04:45.487Z,9.00
2023-05-21T13:07:12.683Z,8.20
2023-05-21T13:09:39.277Z,7.60
2023-05-21T13:12:06.239Z,8.53
2023-05-21T13:14:32.855Z,7.77
2023-05-21T13:16:59.617Z,7.70
2023-05-21T13:19:26.822Z,8.50
2023-05-21T13:21:53.704Z,8.50
2023-05-21T13:24:20.299Z,8.20
2023-05-21T13:26:47.292Z,8.80
2023-05-21T13:29:17.426Z,7.67
2023-05-21T13:31:44.413Z,7.53
2023-05-21T13:34:12.326Z,7.60
2023-05-21T13:36:39.837Z,8.67
2023-05-21T13:39:06.819Z,8.80
2023-05-21T13:41:33.701Z,8.10
2023-05-21T13:44:00.350Z,8.40
2023-05-21T13:46:27.426Z,9.27
2023-05-21T13:48:54.030Z,8.40
2023-05-21T13:51:37.521Z,10.07
2023-05-21T13:54:05.076Z,8.30
2023-05-21T13:56:34.004Z,8.20
2023-05-21T13:59:01.505Z,7.80
2023-05-21T14:01:28.472Z,8.40
2023-05-21T14:03:55.233Z,8.70
2023-05-21T14:06:22.226Z,8.03
2023-05-21T14:08:48.884Z,8.47
2023-05-21T14:11:15.750Z,8.47
2023-05-21T14:13:42.320Z,7.80
2023-05-21T14:16:09.083Z,9.37
2023-05-21T14:18:35.869Z,7.90
2023-05-21T14:21:02.456Z,8.47
2023-05-21T14:23:29.058Z,8.13
2023-05-21T14:25:55.900Z,9.80
2023-05-21T14:28:22.456Z,9.33
2023-05-21T14:30:49.655Z,9.33
2023-05-21T14:33:16.288Z,9.20
2023-05-21T14:35:44.255Z,8.10
2023-05-21T14:38:11.068Z,9.17
2023-05-21T14:40:38.097Z,8.30
2023-05-21T14:43:05.660Z,9.67
2023-05-21T14:45:35.736Z,8.63
2023-05-21T14:48:08.219Z,8.20
2023-05-21T14:50:35.843Z,8.67
2023-05-21T14:53:10.668Z,8.47
2023-05-21T14:55:41.594Z,8.73
2023-05-21T14:58:08.934Z,8.93
2023-05-21T15:00:37.187Z,9.20
2023-05-21T15:03:05.151Z,9.83
2023-05-21T15:05:32.473Z,9.40
2023-05-21T15:07:59.446Z,9.60
2023-05-21T15:10:27.708Z,8.93
2023-05-21T15:12:54.684Z,9.17
2023-05-21T15:15:21.750Z,8.73
2023-05-21T15:17:49.619Z,8.60
2023-05-21T15:20:17.530Z,9.80
2023-05-21T15:22:46.035Z,10.30
2023-05-21T15:25:13.220Z,9.43
2023-05-21T15:27:39.951Z,8.77
2023-05-21T15:30:07.193Z,9.60
2023-05-21T15:32:34.289Z,9.37
2023-05-21T15:35:01.385Z,9.10
2023-05-21T15:37:31.971Z,9.03
2023-05-21T15:39:58.846Z,10.10
2023-05-21T15:42:25.802Z,8.73
2023-05-21T15:44:52.499Z,9.57
2023-05-21T15:47:19.999Z,10.40
2023-05-21T15:49:46.748Z,9.50
2023-05-21T15:52:13.504Z,10.27
2023-05-21T15:54:40.273Z,10.13
2023-05-21T15:57:07.469Z,9.30
2023-05-21T15:59:34.551Z,9.90
2023-05-21T16:02:01.956Z,10.30
2023-05-21T16:04:28.690Z,9.33
2023-05-21T16:06:55.896Z,9.73
2023-05-21T16:09:22.652Z,9.83
2023-05-21T16:11:49.393Z,9.73
2023-05-21T16:14:16.122Z,9.60
2023-05-21T16:16:43.176Z,9.13
2023-05-21T16:19:09.961Z,10.33
2023-05-21T16:21:36.723Z,10.20
2023-05-21T16:24:04.003Z,8.70
2023-05-21T16:26:30.711Z,7.87
2023-05-21T16:28:58.843Z,9.03
2023-05-21T16:31:25.887Z,9.90
2023-05-21T16:33:54.329Z,9.07
2023-05-21T16:36:21.128Z,8.40
2023-05-21T16:38:47.836Z,8.77
2023-05-21T16:41:14.770Z,7.27
2023-05-21T16:43:42.667Z,8.20
2023-05-21T16:46:10.678Z,8.73
2023-05-21T16:48:39.288Z,9.20
2023-05-21T16:51:06.055Z,9.50
2023-05-21T16:53:32.755Z,8.47
2023-05-21T16:55:59.474Z,9.43
2023-05-21T16:58:26.536Z,9.30
2023-05-21T17:00:53.245Z,8.53
2023-05-21T17:03:20.177Z,9.50
2023-05-21T17:05:46.994Z,8.20
2023-05-21T17:08:13.766Z,9.23
2023-05-21T17:10:40.593Z,9.10
2023-05-21T17:13:20.849Z,8.60
2023-05-21T17:15:50.741Z,8.60
2023-05-21T17:18:17.809Z,9.90
2023-05-21T17:20:44.860Z,8.13
2023-05-21T17:23:12.092Z,8.53
2023-05-21T17:25:40.197Z,8.20
2023-05-21T17:28:07.330Z,8.30
2023-05-21T17:30:34.418Z,8.03
2023-05-21T17:33:03.531Z,8.63
2023-05-21T17:35:30.494Z,7.73
2023-05-21T17:37:57.294Z,7.37
2023-05-21T17:40:24.898Z,8.93
2023-05-21T17:42:52.772Z,7.70
2023-05-21T17:45:19.956Z,7.70
2023-05-21T17:47:46.679Z,8.20
2023-05-21T17:50:13.527Z,7.47
2023-05-21T17:52:40.324Z,7.33
2023-05-21T17:55:07.794Z,7.37
2023-05-21T17:57:36.003Z,6.80
2023-05-21T18:00:05.065Z,7.40
2023-05-21T18:02:38.956Z,7.80
2023-05-21T18:05:08.949Z,7.23
2023-05-21T18:07:36.898Z,7.10
2023-05-21T18:10:03.843Z,7.10
2023-05-21T18:12:30.655Z,7.57
2023-05-21T18:14:57.577Z,7.83
2023-05-21T18:17:24.437Z,7.10
2023-05-21T18:19:51.231Z,7.63
2023-05-21T18:22:18.452Z,7.40
2023-05-21T18:24:46.196Z,7.07
2023-05-21T18:27:13.481Z,7.20
2023-05-21T18:29:40.494Z,8.27
2023-05-21T18:32:07.864Z,8.30
2023-05-21T18:34:34.754Z,7.30
2023-05-21T18:37:01.675Z,7.93
2023-05-21T18:39:28.959Z,7.10
2023-05-21T18:42:11.411Z,7.60
2023-05-21T18:44:41.765Z,7.20
2023-05-21T18:47:08.552Z,7.10
2023-05-21T18:49:36.093Z,7.27
2023-05-21T18:52:04.285Z,8.50
2023-05-21T18:54:31.422Z,7.67
2023-05-21T18:57:02.462Z,7.23
2023-05-21T18:59:29.297Z,6.70
2023-05-21T19:01:56.132Z,8.50
2023-05-21T19:04:23.212Z,7.57
2023-05-21T19:06:50.214Z,8.10
2023-05-21T19:09:17.248Z,6.93
2023-05-21T19:11:44.058Z,8.40
2023-05-21T19:14:10.875Z,7.40
2023-05-21T19:16:37.738Z,7.80
2023-05-21T19:19:05.862Z,7.53
2023-05-21T19:21:33.099Z,8.87
2023-05-21T19:23:59.851Z,8.53
2023-05-21T19:26:26.799Z,8.10
2023-05-21T19:28:54.633Z,8.00
2023-05-21T19:31:22.534Z,7.67
2023-05-21T19:33:49.509Z,7.07
2023-05-21T19:36:16.473Z,7.33
2023-05-21T19:38:48.193Z,7.83
2023-05-21T19:41:18.963Z,7.60
2023-05-21T19:43:46.160Z,7.43
2023-05-21T19:46:14.323Z,7.20
2023-05-21T19:48:42.064Z,8.10
2023-05-21T19:51:08.895Z,8.17
2023-05-21T19:53:36.128Z,7.07
2023-05-21T19:56:02.889Z,8.83
2023-05-21T19:58:30.364Z,7.50
2023-05-21T20:01:00.378Z,6.90
2023-05-21T20:03:28.117Z,6.87
2023-05-21T20:05:54.997Z,7.00
2023-05-21T20:08:22.269Z,7.90
2023-05-21T20:10:51.773Z,7.53
2023-05-21T20:13:19.532Z,7.33
2023-05-21T20:15:47.666Z,7.33
2023-05-21T20:18:15.266Z,7.73
2023-05-21T20:20:43.263Z,7.67
2023-05-21T20:23:10.408Z,8.43
2023-05-21T20:25:37.684Z,7.03
2023-05-21T20:28:05.236Z,7.47
2023-05-21T20:30:34.457Z,6.73
2023-05-21T20:33:04.706Z,7.20
2023-05-21T20:35:31.477Z,7.07
2023-05-21T20:37:58.842Z,6.53
2023-05-21T20:40:26.090Z,6.43
2023-05-21T20:42:53.931Z,6.93
2023-05-21T20:45:21.913Z,6.73
2023-05-21T20:47:49.705Z,6.33
2023-05-21T20:50:18.007Z,7.10
2023-05-21T20:52:47.133Z,6.87
2023-05-21T20:55:14.600Z,6.63
2023-05-21T20:57:41.837Z,6.83
2023-05-21T21:00:11.302Z,6.40
2023-05-21T21:02:38.824Z,6.53
2023-05-21T21:05:06.063Z,6.90
2023-05-21T21:07:34.082Z,6.10
2023-05-21T21:10:01.461Z,6.43
2023-05-21T21:12:28.450Z,6.70
2023-05-21T21:14:55.375Z,6.27
2023-05-21T21:17:22.109Z,5.87
2023-05-21T21:19:48.811Z,5.67
2023-05-21T21:22:16.135Z,5.70
2023-05-21T21:24:42.824Z,6.27
2023-05-21T21:27:09.451Z,6.10
2023-05-21T21:29:36.225Z,6.33
2023-05-21T21:32:02.858Z,6.30
2023-05-21T21:34:29.865Z,6.20
2023-05-21T21:36:56.463Z,6.00
2023-05-21T21:39:23.123Z,5.90
2023-05-21T21:41:49.757Z,6.13
2023-05-21T21:44:16.346Z,6.50
2023-05-21T21:46:42.906Z,6.63
2023-05-21T21:49:09.471Z,5.77
2023-05-21T21:51:37.179Z,6.03
2023-05-21T21:54:04.049Z,6.20
2023-05-21T21:56:31.408Z,5.70
2023-05-21T21:58:57.951Z,4.80
2023-05-21T22:01:24.947Z,5.37
2023-05-21T22:03:51.547Z,6.07
2023-05-21T22:06:18.225Z,5.80
2023-05-21T22:08:44.917Z,5.60
2023-05-21T22:11:11.727Z,5.20
2023-05-21T22:13:41.468Z,5.40
2023-05-21T22:16:08.089Z,5.57
2023-05-21T22:18:40.073Z,5.90
2023-05-21T22:21:09.538Z,6.40
2023-05-21T22:23:38.222Z,5.70
2023-05-21T22:26:04.946Z,5.53
2023-05-21T22:28:31.546Z,5.50
2023-05-21T22:30:58.964Z,6.07
2023-05-21T22:33:26.599Z,5.93
2023-05-21T22:35:54.139Z,6.60
2023-05-21T22:38:20.901Z,5.27
2023-05-21T22:40:47.965Z,5.67
2023-05-21T22:43:14.658Z,5.37
2023-05-21T22:45:41.233Z,5.63
2023-05-21T22:48:09.462Z,5.63
2023-05-21T22:50:38.839Z,5.70
2023-05-21T22:53:06.816Z,5.80
2023-05-21T22:55:33.441Z,5.60
2023-05-21T22:58:00.098Z,5.40
2023-05-21T23:00:27.580Z,5.63
2023-05-21T23:02:54.906Z,5.73
2023-05-21T23:05:22.591Z,6.20
2023-05-21T23:07:49.669Z,5.10
2023-05-21T23:10:16.569Z,6.03
2023-05-21T23:12:43.301Z,6.47
2023-05-21T23:15:10.667Z,6.43
2023-05-21T23:17:37.872Z,5.60
2023-05-21T23:20:06.002Z,5.97
2023-05-21T23:22:32.735Z,6.30
2023-05-21T23:24:59.333Z,6.10
2023-05-21T23:27:25.897Z,5.67
2023-05-21T23:29:52.455Z,5.30
2023-05-21T23:32:19.259Z,5.03
2023-05-21T23:34:46.704Z,5.40
2023-05-21T23:37:13.293Z,5.00
2023-05-21T23:39:39.927Z,5.60
2023-05-21T23:42:06.757Z,6.47
2023-05-21T23:44:33.347Z,5.47
2023-05-21T23:46:59.954Z,5.20
2023-05-21T23:49:26.569Z,5.80
2023-05-21T23:51:53.751Z,5.30
2023-05-21T23:54:20.364Z,5.50
2023-05-21T23:56:46.975Z,5.90
2023-05-21T23:59:15.107Z,4.70
